Time;durP1;ratioP1;P1;durP2;ratioP2;P2;SDS_P1;SDS_P2;PMS_P1;PMS_P2;Temp;Humidity;BMP_temperature;BMP_pressure;BME280_temperature;BME280_humidity;BME280_pressure;Samples;Min_cycle;Max_cycle;Signal;HPM_P1;HPM_P2
2023/02/17 00:01:27;;;;;;;30.40;18.93;;;8.10;99.90;;;;;;5105292;28;20289;-84
2023/02/17 00:03:54;;;;;;;30.37;19.17;;;8.10;99.90;;;;;;5104546;28;20280;-84
2023/02/17 00:06:24;;;;;;;32.10;18.63;;;8.20;99.90;;;;;;5107012;28;20231;-83
2023/02/17 00:08:51;;;;;;;32.20;19.03;;;8.10;99.90;;;;;;5102587;28;20263;-83
2023/02/17 00:11:18;;;;;;;32.33;20.20;;;8.20;99.90;;;;;;5100235;28;20206;-85
2023/02/17 00:13:45;;;;;;;31.23;19.43;;;8.20;99.90;;;;;;5114400;28;20201;-84
2023/02/17 00:16:15;;;;;;;32.10;19.17;;;8.20;99.90;;;;;;5108405;28;20197;-83
2023/02/17 00:18:43;;;;;;;31.57;18.47;;;8.20;99.90;;;;;;5111911;28;20231;-84
2023/02/17 00:21:16;;;;;;;33.07;19.90;;;8.20;99.90;;;;;;5102315;28;20216;-84
2023/02/17 00:23:45;;;;;;;30.90;19.20;;;8.20;99.90;;;;;;5103685;28;20733;-84
2023/02/17 00:26:13;;;;;;;31.13;18.67;;;8.20;99.90;;;;;;5102980;28;20204;-85
2023/02/17 00:28:39;;;;;;;30.03;18.37;;;8.20;99.90;;;;;;5101879;28;20209;-84
2023/02/17 00:31:07;;;;;;;29.97;19.07;;;8.20;99.90;;;;;;5101442;28;20293;-84
2023/02/17 00:33:34;;;;;;;33.10;18.87;;;8.30;99.90;;;;;;5097649;28;20866;-84
2023/02/17 00:36:04;;;;;;;30.90;19.27;;;8.30;99.90;;;;;;5101068;28;20293;-83
2023/02/17 00:38:31;;;;;;;31.53;19.27;;;8.30;99.90;;;;;;5098849;28;20225;-85
2023/02/17 00:40:59;;;;;;;30.70;19.90;;;8.30;99.90;;;;;;5099972;28;20221;-84
2023/02/17 00:43:26;;;;;;;28.90;18.77;;;8.30;99.90;;;;;;5097861;28;20209;-84
2023/02/17 00:45:53;;;;;;;28.03;17.93;;;8.40;99.90;;;;;;5100889;28;20603;-84
2023/02/17 00:48:20;;;;;;;30.43;18.33;;;8.30;99.90;;;;;;5099799;28;20209;-84
2023/02/17 00:50:47;;;;;;;29.97;18.40;;;8.30;99.90;;;;;;5097240;28;20666;-84
2023/02/17 00:53:14;;;;;;;29.03;18.07;;;8.30;99.90;;;;;;5095761;28;20208;-84
2023/02/17 00:55:41;;;;;;;29.17;18.57;;;8.30;99.90;;;;;;5099901;28;20198;-84
2023/02/17 00:58:09;;;;;;;27.37;17.10;;;8.30;99.90;;;;;;5101132;28;20312;-84
2023/02/17 01:00:36;;;;;;;28.37;17.97;;;8.30;99.90;;;;;;5089135;28;20570;-83
2023/02/17 01:03:03;;;;;;;29.23;18.20;;;8.30;99.90;;;;;;5077969;28;20194;-84
2023/02/17 01:05:30;;;;;;;28.93;18.50;;;8.20;99.90;;;;;;5081208;28;20217;-84
2023/02/17 01:07:57;;;;;;;27.57;17.97;;;8.20;99.90;;;;;;5078869;28;20361;-84
2023/02/17 01:10:23;;;;;;;26.80;16.50;;;8.20;99.90;;;;;;5078958;28;20206;-84
2023/02/17 01:12:50;;;;;;;28.67;17.50;;;8.30;99.90;;;;;;5078303;28;20437;-84
2023/02/17 01:15:19;;;;;;;28.60;18.33;;;8.30;99.90;;;;;;5083863;28;20204;-85
2023/02/17 01:17:46;;;;;;;26.20;16.27;;;8.30;99.90;;;;;;5098260;28;20229;-84
2023/02/17 01:20:13;;;;;;;25.30;15.67;;;8.20;99.90;;;;;;5098463;28;20257;-85
2023/02/17 01:22:40;;;;;;;27.33;16.70;;;8.30;99.90;;;;;;5097775;28;20266;-83
2023/02/17 01:25:07;;;;;;;24.57;16.30;;;8.30;99.90;;;;;;5099870;28;20198;-83
2023/02/17 01:27:35;;;;;;;26.60;16.87;;;8.30;99.90;;;;;;5098207;28;20217;-83
2023/02/17 01:30:02;;;;;;;26.57;16.97;;;8.30;99.90;;;;;;5100330;28;20216;-84
2023/02/17 01:32:30;;;;;;;26.00;16.73;;;8.40;99.90;;;;;;5087516;28;20658;-84
2023/02/17 01:34:57;;;;;;;24.43;16.33;;;8.20;99.90;;;;;;5094944;28;20214;-83
2023/02/17 01:37:24;;;;;;;23.90;15.53;;;8.40;99.90;;;;;;5090753;28;20252;-83
2023/02/17 01:39:51;;;;;;;26.00;16.57;;;8.30;99.90;;;;;;5091235;28;20219;-84
2023/02/17 01:42:19;;;;;;;22.40;14.87;;;8.40;99.90;;;;;;5092348;28;20286;-84
2023/02/17 01:45:30;;;;;;;24.47;15.27;;;8.40;99.90;;;;;;5098996;28;20209;-84
2023/02/17 01:48:03;;;;;;;25.67;14.90;;;8.40;99.90;;;;;;5099892;28;20328;-84
2023/02/17 01:50:34;;;;;;;23.40;15.17;;;8.40;99.90;;;;;;5099579;28;20190;-85
2023/02/17 01:53:03;;;;;;;25.67;16.43;;;8.40;99.90;;;;;;5098581;28;20202;-84
2023/02/17 01:55:33;;;;;;;24.23;15.37;;;8.40;99.90;;;;;;5099863;28;20205;-84
2023/02/17 01:58:02;;;;;;;22.00;14.43;;;8.40;99.90;;;;;;5097342;28;20217;-85
2023/02/17 02:00:32;;;;;;;27.50;16.33;;;8.50;99.90;;;;;;5099301;28;20210;-86
2023/02/17 02:03:01;;;;;;;25.67;15.73;;;8.50;99.90;;;;;;5097165;28;20257;-84
2023/02/17 02:05:28;;;;;;;26.03;16.67;;;8.50;99.90;;;;;;5098300;28;20216;-83
2023/02/17 02:07:56;;;;;;;24.10;15.67;;;8.50;99.90;;;;;;5100582;28;20304;-84
2023/02/17 02:10:23;;;;;;;26.60;17.90;;;8.50;99.90;;;;;;5097681;28;20293;-84
2023/02/17 02:12:50;;;;;;;24.37;15.13;;;8.50;99.90;;;;;;5098000;28;20209;-85
2023/02/17 02:15:19;;;;;;;25.77;16.17;;;8.50;99.90;;;;;;5097727;28;20198;-84
2023/02/17 02:17:59;;;;;;;26.47;17.13;;;8.50;99.90;;;;;;5097330;28;20225;-83
2023/02/17 02:20:45;;;;;;;22.70;15.57;;;8.60;99.90;;;;;;5100418;28;20879;-85
2023/02/17 02:23:48;;;;;;;24.27;16.27;;;8.60;99.90;;;;;;5100937;28;20212;-84
2023/02/17 02:26:53;;;;;;;25.43;16.13;;;8.60;99.90;;;;;;5097277;28;20206;-83
2023/02/17 02:29:41;;;;;;;26.30;17.17;;;8.70;99.90;;;;;;5083342;28;20198;-85
2023/02/17 02:32:32;;;;;;;25.20;14.93;;;8.70;99.90;;;;;;5099574;28;20210;-85
2023/02/17 02:35:05;;;;;;;24.60;15.37;;;8.70;99.90;;;;;;5100823;28;20761;-84
2023/02/17 02:37:35;;;;;;;24.23;16.37;;;8.80;99.90;;;;;;5101942;28;20232;-83
2023/02/17 02:40:06;;;;;;;23.67;16.07;;;8.80;99.90;;;;;;5103081;28;20257;-84
2023/02/17 02:42:34;;;;;;;22.60;14.50;;;8.80;99.90;;;;;;5102621;28;20579;-84
2023/02/17 02:45:01;;;;;;;23.70;15.97;;;8.90;99.90;;;;;;5091347;28;20211;-84
2023/02/17 02:47:43;;;;;;;22.10;14.67;;;8.80;99.90;;;;;;5099428;28;20289;-83
2023/02/17 02:50:12;;;;;;;22.80;15.47;;;8.80;99.90;;;;;;5102861;28;20205;-83
2023/02/17 02:52:58;;;;;;;23.00;15.40;;;8.80;99.90;;;;;;5103462;28;20201;-84
2023/02/17 02:55:37;;;;;;;23.17;15.53;;;8.80;99.90;;;;;;5104438;28;20225;-84
2023/02/17 02:58:09;;;;;;;21.53;14.63;;;8.80;99.90;;;;;;5100900;28;20224;-83
2023/02/17 03:00:42;;;;;;;22.17;15.27;;;8.90;99.90;;;;;;5105587;28;20265;-84
2023/02/17 03:03:15;;;;;;;20.60;13.97;;;8.90;99.90;;;;;;5102546;28;20201;-84
2023/02/17 03:05:52;;;;;;;23.03;15.23;;;8.90;99.90;;;;;;5105420;28;20205;-84
2023/02/17 03:08:25;;;;;;;23.47;15.47;;;8.90;99.90;;;;;;5102523;28;20275;-83
2023/02/17 03:10:54;;;;;;;22.47;14.47;;;8.90;99.90;;;;;;5103701;28;20209;-84
2023/02/17 03:13:21;;;;;;;22.67;14.47;;;8.90;99.90;;;;;;5103953;28;20208;-84
2023/02/17 03:15:49;;;;;;;22.37;14.77;;;8.90;99.90;;;;;;5101853;28;20206;-84
2023/02/17 03:18:17;;;;;;;20.40;13.97;;;8.90;99.90;;;;;;5103491;28;20227;-84
2023/02/17 03:20:48;;;;;;;23.73;15.40;;;8.90;99.90;;;;;;5105281;28;20201;-85
2023/02/17 03:23:15;;;;;;;21.17;13.77;;;8.90;99.90;;;;;;5100605;28;20572;-84
2023/02/17 03:25:43;;;;;;;21.33;14.20;;;9.00;99.90;;;;;;5103122;28;20261;-84
2023/02/17 03:28:10;;;;;;;22.00;14.87;;;9.00;99.90;;;;;;5099660;28;20233;-84
2023/02/17 03:30:37;;;;;;;19.87;13.27;;;9.00;99.90;;;;;;5103654;28;20197;-84
2023/02/17 03:33:05;;;;;;;21.30;14.53;;;9.00;99.90;;;;;;5101040;28;20556;-84
2023/02/17 03:35:33;;;;;;;22.73;14.70;;;9.00;99.90;;;;;;5103022;28;20205;-84
2023/02/17 03:38:00;;;;;;;19.77;13.40;;;9.00;99.90;;;;;;5099244;28;20309;-85
2023/02/17 03:40:26;;;;;;;20.70;13.93;;;9.10;99.90;;;;;;5102031;28;20204;-84
2023/02/17 03:42:53;;;;;;;20.30;13.93;;;9.10;99.90;;;;;;5103006;28;20289;-84
2023/02/17 03:45:20;;;;;;;19.27;13.13;;;9.20;99.90;;;;;;5101685;28;20254;-84
2023/02/17 03:47:47;;;;;;;18.80;13.33;;;9.00;99.90;;;;;;5101996;28;20580;-85
2023/02/17 03:50:14;;;;;;;17.97;12.80;;;9.00;99.90;;;;;;5101762;28;20271;-84
2023/02/17 03:52:42;;;;;;;19.77;13.47;;;9.00;99.90;;;;;;5102548;28;20201;-84
2023/02/17 03:55:08;;;;;;;19.87;12.90;;;9.00;99.90;;;;;;5102635;28;20205;-84
2023/02/17 03:57:35;;;;;;;18.47;13.03;;;9.10;99.90;;;;;;5102665;28;20225;-84
2023/02/17 04:00:03;;;;;;;19.27;13.50;;;9.10;99.90;;;;;;5103594;28;20225;-84
2023/02/17 04:02:30;;;;;;;19.73;14.13;;;9.10;99.90;;;;;;5101234;28;20299;-83
2023/02/17 04:04:56;;;;;;;17.83;12.10;;;9.20;99.90;;;;;;5102225;28;20831;-83
2023/02/17 04:07:23;;;;;;;18.47;12.23;;;9.20;99.90;;;;;;5100784;28;20229;-85
2023/02/17 04:09:52;;;;;;;18.57;12.43;;;9.20;99.90;;;;;;5097563;28;20270;-83
2023/02/17 04:12:18;;;;;;;17.67;11.97;;;9.20;99.90;;;;;;5097480;28;20189;-81
2023/02/17 04:14:45;;;;;;;17.97;12.43;;;9.10;99.90;;;;;;5095788;28;20672;-84
2023/02/17 04:17:12;;;;;;;17.57;12.30;;;9.20;99.90;;;;;;5096000;28;20247;-83
2023/02/17 04:19:39;;;;;;;18.13;12.63;;;9.20;99.90;;;;;;5087663;28;20224;-83
2023/02/17 04:22:07;;;;;;;18.23;12.23;;;9.40;99.90;;;;;;5082482;28;20231;-83
2023/02/17 04:24:35;;;;;;;18.17;12.80;;;9.20;99.90;;;;;;5076276;28;20721;-83
2023/02/17 04:27:04;;;;;;;19.37;12.53;;;9.30;99.90;;;;;;5081850;28;20215;-84
2023/02/17 04:29:31;;;;;;;17.20;11.77;;;9.30;99.90;;;;;;5095929;28;20228;-85
2023/02/17 04:31:57;;;;;;;15.70;10.90;;;9.30;99.90;;;;;;5094679;28;20219;-86
2023/02/17 04:34:24;;;;;;;15.93;10.77;;;9.30;99.90;;;;;;5091696;28;20213;-86
2023/02/17 04:36:51;;;;;;;18.73;12.17;;;9.30;99.90;;;;;;5091605;28;20720;-87
2023/02/17 04:39:18;;;;;;;18.50;12.20;;;9.30;99.90;;;;;;5091508;28;20316;-87
2023/02/17 04:41:45;;;;;;;19.17;11.97;;;9.40;99.90;;;;;;5091952;28;20197;-86
2023/02/17 04:44:13;;;;;;;16.60;11.50;;;9.40;99.90;;;;;;5092119;28;20216;-86
2023/02/17 04:46:40;;;;;;;15.03;10.73;;;9.50;99.90;;;;;;5091310;28;20225;-87
2023/02/17 04:49:07;;;;;;;15.87;11.03;;;9.40;99.90;;;;;;5091821;28;20193;-86
2023/02/17 04:51:34;;;;;;;18.67;12.87;;;9.40;99.90;;;;;;5092019;28;20216;-86
2023/02/17 04:54:00;;;;;;;15.87;10.97;;;9.50;99.90;;;;;;5093073;28;20205;-86
2023/02/17 04:56:27;;;;;;;17.03;11.17;;;9.40;99.90;;;;;;5093775;28;20227;-85
2023/02/17 04:58:54;;;;;;;16.90;10.87;;;9.40;99.90;;;;;;5102665;28;20252;-86
2023/02/17 05:01:22;;;;;;;15.60;10.73;;;9.40;99.90;;;;;;5100529;28;20668;-86
2023/02/17 05:03:49;;;;;;;17.90;11.30;;;9.30;99.90;;;;;;5088698;28;20204;-86
2023/02/17 05:06:16;;;;;;;17.10;11.83;;;9.40;99.90;;;;;;5087305;28;20194;-87
2023/02/17 05:08:43;;;;;;;16.37;11.33;;;9.40;99.90;;;;;;5093243;28;20195;-86
2023/02/17 05:11:10;;;;;;;17.43;11.23;;;9.30;99.90;;;;;;5097252;28;20205;-87
2023/02/17 05:13:37;;;;;;;19.10;12.10;;;9.30;99.90;;;;;;5102631;28;20206;-86
2023/02/17 05:16:04;;;;;;;17.00;10.93;;;9.30;99.90;;;;;;5100374;28;20197;-86
2023/02/17 05:18:36;;;;;;;16.20;10.80;;;9.30;99.90;;;;;;5100227;28;20212;-87
2023/02/17 05:21:03;;;;;;;21.47;12.97;;;9.30;99.90;;;;;;5085693;28;20197;-86
2023/02/17 05:23:30;;;;;;;16.73;11.00;;;9.30;99.90;;;;;;5093309;28;20214;-86
2023/02/17 05:25:57;;;;;;;17.40;10.87;;;9.30;99.90;;;;;;5105653;28;20197;-88
2023/02/17 05:28:24;;;;;;;16.57;10.57;;;9.40;99.90;;;;;;5101082;28;20206;-87
2023/02/17 05:30:52;;;;;;;15.53;10.67;;;9.40;99.90;;;;;;5090913;28;20200;-87
2023/02/17 05:33:19;;;;;;;15.80;11.10;;;9.40;99.90;;;;;;5097674;28;20712;-88
2023/02/17 05:35:47;;;;;;;18.67;12.33;;;9.40;99.90;;;;;;5104402;28;20193;-85
2023/02/17 05:38:15;;;;;;;18.00;12.20;;;9.50;99.90;;;;;;5085255;28;20641;-85
2023/02/17 05:40:41;;;;;;;17.27;11.60;;;9.60;99.90;;;;;;5091586;28;20255;-85
2023/02/17 05:43:09;;;;;;;14.97;10.17;;;9.70;99.90;;;;;;5095096;28;20260;-86
2023/02/17 05:45:36;;;;;;;16.07;11.00;;;9.70;99.90;;;;;;5094108;28;20252;-86
2023/02/17 05:48:05;;;;;;;17.30;11.37;;;9.90;99.90;;;;;;5098447;28;20225;-86
2023/02/17 05:50:32;;;;;;;17.00;11.07;;;10.00;99.90;;;;;;5089681;28;20202;-88
2023/02/17 05:53:00;;;;;;;19.87;12.63;;;10.00;99.90;;;;;;5086470;28;20201;-86
2023/02/17 05:55:28;;;;;;;16.97;11.53;;;10.10;99.90;;;;;;5098650;28;20244;-87
2023/02/17 05:57:54;;;;;;;19.50;12.53;;;10.00;99.90;;;;;;5097590;28;20217;-87
2023/02/17 06:00:22;;;;;;;20.07;13.40;;;10.00;99.90;;;;;;5101538;28;20227;-87
2023/02/17 06:02:49;;;;;;;20.33;12.43;;;10.10;99.90;;;;;;5094938;28;20203;-86
2023/02/17 06:05:16;;;;;;;21.13;13.67;;;10.10;99.90;;;;;;5095988;28;20190;-86
2023/02/17 06:07:43;;;;;;;21.60;14.33;;;10.10;99.90;;;;;;5097825;28;20697;-86
2023/02/17 06:10:11;;;;;;;22.50;14.60;;;10.10;99.90;;;;;;5100948;28;20193;-86
2023/02/17 06:12:38;;;;;;;21.53;14.77;;;10.20;99.90;;;;;;5101476;28;20197;-85
2023/02/17 06:15:06;;;;;;;21.37;14.23;;;10.20;99.90;;;;;;5091844;28;20207;-85
2023/02/17 06:17:33;;;;;;;24.30;15.77;;;10.20;99.90;;;;;;5105918;28;20227;-86
2023/02/17 06:20:00;;;;;;;22.93;15.43;;;10.30;99.90;;;;;;5093614;28;20209;-84
2023/02/17 06:22:27;;;;;;;24.47;16.83;;;10.30;99.90;;;;;;5104393;28;20769;-85
2023/02/17 06:24:54;;;;;;;24.50;15.43;;;10.40;99.90;;;;;;5097581;28;20577;-84
2023/02/17 06:27:22;;;;;;;22.50;14.73;;;10.50;99.90;;;;;;5102424;28;20214;-88
2023/02/17 06:29:49;;;;;;;24.13;16.40;;;10.50;99.90;;;;;;5090675;28;20236;-86
2023/02/17 06:32:16;;;;;;;24.03;15.10;;;10.50;99.90;;;;;;5108203;28;20200;-85
2023/02/17 06:34:42;;;;;;;23.27;16.23;;;10.50;99.90;;;;;;5109601;28;20570;-85
2023/02/17 06:37:09;;;;;;;21.03;15.20;;;10.50;99.90;;;;;;5102711;28;20231;-86
2023/02/17 06:39:36;;;;;;;22.83;15.27;;;10.50;99.90;;;;;;5096107;28;20221;-87
2023/02/17 06:42:03;;;;;;;24.23;15.60;;;10.50;99.90;;;;;;5106868;28;20208;-85
2023/02/17 06:44:31;;;;;;;22.60;14.43;;;10.50;99.90;;;;;;5095643;28;20194;-86
2023/02/17 06:46:58;;;;;;;20.77;14.33;;;10.60;99.90;;;;;;5104728;28;20220;-86
2023/02/17 06:49:25;;;;;;;21.17;14.50;;;10.50;99.90;;;;;;5104421;28;20194;-87
2023/02/17 06:51:52;;;;;;;20.50;13.73;;;10.60;99.90;;;;;;5106899;28;20201;-87
2023/02/17 06:54:19;;;;;;;21.43;13.97;;;10.50;99.90;;;;;;5103742;28;20204;-86
2023/02/17 06:56:46;;;;;;;21.17;14.30;;;10.50;99.90;;;;;;5100190;28;20225;-85
2023/02/17 06:59:12;;;;;;;21.30;14.10;;;10.60;99.90;;;;;;5107961;28;20228;-86
2023/02/17 07:01:41;;;;;;;21.37;14.67;;;10.60;99.90;;;;;;5090097;28;20241;-86
2023/02/17 07:04:07;;;;;;;22.10;14.60;;;10.60;99.90;;;;;;5105201;28;20204;-86
2023/02/17 07:06:34;;;;;;;22.57;14.60;;;10.60;99.90;;;;;;5083118;28;20222;-86
2023/02/17 07:09:01;;;;;;;21.93;15.23;;;10.80;99.90;;;;;;5092896;28;20212;-86
2023/02/17 07:11:30;;;;;;;23.60;15.70;;;10.80;99.90;;;;;;5109568;28;20205;-87
2023/02/17 07:13:57;;;;;;;22.70;16.03;;;10.80;99.90;;;;;;5094682;28;20663;-86
2023/02/17 07:16:24;;;;;;;23.67;15.27;;;10.80;99.90;;;;;;5108565;28;20584;-86
2023/02/17 07:18:52;;;;;;;22.70;16.17;;;10.90;99.90;;;;;;5098287;28;20666;-86
2023/02/17 07:21:18;;;;;;;24.63;16.57;;;10.70;99.90;;;;;;5098414;28;20691;-85
2023/02/17 07:23:45;;;;;;;25.97;16.53;;;10.80;99.90;;;;;;5097568;28;20199;-86
2023/02/17 07:26:13;;;;;;;24.17;15.83;;;10.90;99.90;;;;;;5108217;28;20197;-86
2023/02/17 07:28:41;;;;;;;24.37;15.73;;;10.80;99.90;;;;;;5099202;28;20351;-86
2023/02/17 07:31:09;;;;;;;25.77;17.20;;;11.10;99.90;;;;;;5098462;28;20199;-85
2023/02/17 07:33:37;;;;;;;24.50;16.10;;;10.90;99.90;;;;;;5095148;28;20195;-87
2023/02/17 07:36:08;;;;;;;22.63;14.83;;;10.90;99.90;;;;;;5089039;28;20204;-85
2023/02/17 07:38:35;;;;;;;21.03;14.07;;;11.00;99.90;;;;;;5095069;28;20200;-86
2023/02/17 07:41:05;;;;;;;21.43;13.80;;;11.10;99.90;;;;;;5092011;28;20224;-85
2023/02/17 07:43:32;;;;;;;20.33;13.60;;;11.10;99.90;;;;;;5113614;28;20690;-86
2023/02/17 07:45:59;;;;;;;20.13;13.20;;;11.10;99.90;;;;;;5097480;28;20201;-86
2023/02/17 07:48:26;;;;;;;22.57;13.70;;;11.10;99.90;;;;;;5103899;28;20657;-87
2023/02/17 07:50:52;;;;;;;19.20;13.43;;;11.20;99.90;;;;;;5093906;28;20208;-87
2023/02/17 07:53:21;;;;;;;18.97;12.83;;;11.10;99.90;;;;;;5103426;28;20198;-87
2023/02/17 07:55:47;;;;;;;20.90;14.03;;;11.00;99.90;;;;;;5082807;28;20204;-89
2023/02/17 07:58:14;;;;;;;19.53;13.70;;;11.10;99.90;;;;;;5086788;28;20220;-88
2023/02/17 08:00:41;;;;;;;17.43;12.17;;;11.10;99.90;;;;;;5092750;28;20280;-86
2023/02/17 08:03:09;;;;;;;19.30;11.60;;;11.10;99.90;;;;;;5085449;28;20205;-85
2023/02/17 08:05:39;;;;;;;19.00;12.30;;;11.20;99.90;;;;;;5098048;28;20298;-86
2023/02/17 08:13:36;;;;;;;17.93;11.63;;;11.20;99.90;;;;;;5087484;28;20681;-87
2023/02/17 08:16:02;;;;;;;17.77;11.80;;;11.30;99.90;;;;;;5096306;28;20211;-87
2023/02/17 08:18:29;;;;;;;15.27;11.03;;;11.20;99.90;;;;;;5091542;28;20600;-87
2023/02/17 08:20:56;;;;;;;16.50;11.13;;;11.20;99.90;;;;;;5088870;28;20218;-86
2023/02/17 08:23:23;;;;;;;16.97;11.40;;;11.20;99.90;;;;;;5085482;28;20853;-87
2023/02/17 08:25:51;;;;;;;17.17;11.23;;;11.30;99.90;;;;;;5081405;28;20210;-86
2023/02/17 08:28:20;;;;;;;15.70;10.70;;;11.30;99.90;;;;;;5083956;28;20218;-86
2023/02/17 08:30:47;;;;;;;16.10;10.93;;;11.30;99.90;;;;;;5089148;28;20716;-86
2023/02/17 08:33:16;;;;;;;17.23;11.20;;;11.40;99.90;;;;;;5096196;28;20696;-87
2023/02/17 08:35:43;;;;;;;16.80;11.43;;;11.30;99.90;;;;;;5108243;28;20240;-85
2023/02/17 08:38:10;;;;;;;16.43;11.60;;;11.20;99.90;;;;;;5088140;28;20222;-87
2023/02/17 08:40:37;;;;;;;16.07;11.50;;;11.30;99.90;;;;;;5079780;28;20213;-85
2023/02/17 08:43:07;;;;;;;18.53;11.17;;;11.40;99.90;;;;;;5096049;28;20273;-87
2023/02/17 08:45:35;;;;;;;17.43;11.63;;;11.40;99.90;;;;;;5105457;28;20201;-87
2023/02/17 08:48:02;;;;;;;15.50;11.20;;;11.30;99.90;;;;;;5085855;28;20217;-85
2023/02/17 08:50:30;;;;;;;19.27;12.40;;;11.30;99.90;;;;;;5094413;28;20200;-87
2023/02/17 08:52:57;;;;;;;18.53;12.30;;;11.40;99.90;;;;;;5097320;28;20190;-86
2023/02/17 08:55:24;;;;;;;16.90;11.63;;;11.30;99.90;;;;;;5082394;28;20254;-87
2023/02/17 08:57:50;;;;;;;16.17;11.30;;;11.40;99.90;;;;;;5097443;28;20303;-84
2023/02/17 09:00:19;;;;;;;15.40;10.70;;;11.40;99.90;;;;;;5098608;28;20213;-84
2023/02/17 09:02:46;;;;;;;16.07;10.63;;;11.40;99.90;;;;;;5077439;28;20244;-86
2023/02/17 09:05:13;;;;;;;17.17;11.30;;;11.50;99.90;;;;;;5090323;28;20273;-85
2023/02/17 09:07:41;;;;;;;16.10;10.67;;;11.40;99.90;;;;;;5092964;28;20232;-87
2023/02/17 09:10:12;;;;;;;15.47;10.63;;;11.50;99.90;;;;;;5100364;28;20197;-86
2023/02/17 09:12:39;;;;;;;15.67;10.50;;;11.50;99.90;;;;;;5100725;28;20272;-86
2023/02/17 09:15:06;;;;;;;13.87;9.50;;;11.60;99.90;;;;;;5091632;28;20605;-88
2023/02/17 09:17:37;;;;;;;16.10;10.20;;;11.50;99.90;;;;;;5094487;28;20232;-85
2023/02/17 09:20:07;;;;;;;16.33;10.43;;;11.50;99.90;;;;;;5101585;28;20262;-88
2023/02/17 09:22:34;;;;;;;15.63;9.93;;;11.50;99.90;;;;;;5091811;28;20828;-86
2023/02/17 09:25:01;;;;;;;13.77;9.77;;;11.50;99.90;;;;;;5099461;28;20189;-87
2023/02/17 09:27:27;;;;;;;12.73;8.53;;;11.50;99.90;;;;;;5109136;28;20221;-86
2023/02/17 09:29:54;;;;;;;14.07;9.80;;;11.50;99.90;;;;;;5092773;28;20308;-86
2023/02/17 09:32:21;;;;;;;14.33;9.67;;;11.60;99.90;;;;;;5096739;28;20224;-86
2023/02/17 09:34:51;;;;;;;13.73;10.10;;;11.60;99.90;;;;;;5085873;28;20193;-86
2023/02/17 09:37:19;;;;;;;15.20;10.10;;;11.60;99.90;;;;;;5090024;28;20225;-88
2023/02/17 09:39:47;;;;;;;13.60;9.87;;;11.60;99.90;;;;;;5098589;28;20205;-88
2023/02/17 09:42:19;;;;;;;13.57;9.00;;;11.60;99.90;;;;;;5085345;28;20212;-85
2023/02/17 09:44:49;;;;;;;15.47;9.07;;;11.60;99.90;;;;;;5096837;28;20265;-85
2023/02/17 09:47:22;;;;;;;12.33;8.50;;;11.60;99.90;;;;;;5098074;28;20632;-85
2023/02/17 09:49:55;;;;;;;13.23;9.43;;;11.70;99.90;;;;;;5094301;28;20200;-87
2023/02/17 09:52:27;;;;;;;15.00;9.50;;;11.60;99.90;;;;;;5093455;28;20220;-87
2023/02/17 09:55:02;;;;;;;12.40;8.80;;;11.60;99.90;;;;;;5096365;28;20203;-87
2023/02/17 09:57:34;;;;;;;13.13;8.47;;;11.60;99.90;;;;;;5087606;28;20220;-85
2023/02/17 10:00:07;;;;;;;13.57;9.77;;;11.60;99.90;;;;;;5084982;28;20200;-87
2023/02/17 10:02:41;;;;;;;13.77;10.03;;;11.60;99.90;;;;;;5095105;28;20220;-85
2023/02/17 10:05:14;;;;;;;13.50;8.80;;;11.60;99.90;;;;;;5091079;28;20206;-87
2023/02/17 10:07:46;;;;;;;14.57;9.17;;;11.60;99.90;;;;;;5094746;28;20578;-85
2023/02/17 10:10:18;;;;;;;12.63;9.13;;;11.60;99.90;;;;;;5103805;28;20648;-85
2023/02/17 10:12:49;;;;;;;13.00;9.13;;;11.60;99.90;;;;;;5097492;28;20205;-86
2023/02/17 10:15:19;;;;;;;14.13;9.13;;;11.60;99.90;;;;;;5106459;28;20212;-85
2023/02/17 10:17:53;;;;;;;13.87;9.67;;;11.60;99.90;;;;;;5102999;28;20270;-86
2023/02/17 10:20:25;;;;;;;13.90;9.40;;;11.70;99.90;;;;;;5100755;28;20370;-87
2023/02/17 10:22:57;;;;;;;13.20;9.43;;;11.60;99.90;;;;;;5090201;28;20231;-86
2023/02/17 10:25:39;;;;;;;14.63;9.63;;;11.60;99.90;;;;;;5098736;28;20240;-87
2023/02/17 10:28:09;;;;;;;13.97;9.57;;;11.60;99.90;;;;;;5103967;28;20229;-86
2023/02/17 10:30:45;;;;;;;16.57;11.00;;;11.70;99.90;;;;;;5095728;28;20570;-86
2023/02/17 10:33:18;;;;;;;14.87;10.03;;;11.70;99.90;;;;;;5094235;28;20575;-84
2023/02/17 10:35:52;;;;;;;14.40;10.03;;;11.80;99.90;;;;;;5092886;28;20208;-85
2023/02/17 10:38:34;;;;;;;15.37;9.23;;;11.80;99.90;;;;;;5099016;28;20236;-86
2023/02/17 10:41:03;;;;;;;15.33;10.07;;;11.90;99.90;;;;;;5101238;28;20222;-86
2023/02/17 10:43:32;;;;;;;14.53;9.77;;;11.90;99.90;;;;;;5090233;28;20213;-86
2023/02/17 10:46:02;;;;;;;16.77;11.00;;;12.00;99.90;;;;;;5099887;28;20194;-86
2023/02/17 10:48:37;;;;;;;16.77;11.23;;;12.00;99.90;;;;;;5108445;28;20240;-86
2023/02/17 10:51:06;;;;;;;16.67;11.10;;;12.10;99.90;;;;;;5091818;28;20211;-84
2023/02/17 10:53:37;;;;;;;15.23;10.10;;;12.10;99.90;;;;;;5099106;28;20233;-86
2023/02/17 10:56:09;;;;;;;15.23;10.97;;;12.10;99.90;;;;;;5091430;28;20641;-86
2023/02/17 10:58:43;;;;;;;15.80;10.67;;;12.10;99.90;;;;;;5100989;28;20630;-86
2023/02/17 11:01:10;;;;;;;14.77;10.33;;;12.10;99.90;;;;;;5099489;28;20570;-85
2023/02/17 11:03:39;;;;;;;17.23;10.53;;;12.20;99.90;;;;;;5097890;28;20727;-87
2023/02/17 11:06:17;;;;;;;15.50;10.33;;;12.30;99.90;;;;;;5105026;28;20657;-86
2023/02/17 11:08:46;;;;;;;15.10;10.70;;;12.30;99.90;;;;;;5084231;28;20192;-82
2023/02/17 11:11:17;;;;;;;12.80;9.17;;;12.40;99.90;;;;;;5120880;28;20250;-82
2023/02/17 11:13:56;;;;;;;14.80;9.93;;;12.50;99.90;;;;;;5112098;28;20289;-86
2023/02/17 11:16:27;;;;;;;14.67;10.27;;;12.60;99.90;;;;;;5088525;28;20260;-85
2023/02/17 11:18:55;;;;;;;15.33;10.53;;;12.70;99.90;;;;;;5112500;28;20201;-85
2023/02/17 11:21:24;;;;;;;14.37;9.37;;;12.70;99.90;;;;;;5101801;28;20631;-86
2023/02/17 11:23:56;;;;;;;16.60;10.77;;;12.70;99.90;;;;;;5102227;28;20200;-84
2023/02/17 11:26:25;;;;;;;13.83;9.33;;;12.90;99.90;;;;;;5078102;28;20245;-86
2023/02/17 11:28:52;;;;;;;12.83;9.27;;;12.80;99.90;;;;;;5089899;28;20282;-84
2023/02/17 11:31:24;;;;;;;13.33;9.13;;;12.80;99.90;;;;;;5096263;28;20201;-88
2023/02/17 11:33:51;;;;;;;13.40;9.23;;;12.90;99.90;;;;;;5101028;28;20229;-85
2023/02/17 11:36:26;;;;;;;12.67;8.90;;;13.00;99.90;;;;;;5086654;28;20590;-85
2023/02/17 11:38:53;;;;;;;14.20;9.63;;;13.10;99.90;;;;;;5082703;28;20570;-85
2023/02/17 11:41:20;;;;;;;15.27;10.10;;;13.20;99.90;;;;;;5097218;28;20218;-83
2023/02/17 11:43:55;;;;;;;14.10;9.60;;;13.30;99.90;;;;;;5096441;28;20208;-87
2023/02/17 11:46:27;;;;;;;16.23;8.90;;;13.30;99.90;;;;;;5086590;28;20214;-86
2023/02/17 11:49:25;;;;;;;13.40;9.37;;;13.40;99.90;;;;;;5085003;28;20248;-86
2023/02/17 11:52:05;;;;;;;14.30;9.70;;;13.40;99.90;;;;;;5090198;28;20210;-86
2023/02/17 11:54:36;;;;;;;13.20;8.90;;;13.40;99.90;;;;;;5085832;28;20252;-85
2023/02/17 11:57:21;;;;;;;16.97;10.20;;;13.40;99.90;;;;;;5105307;28;20684;-86
2023/02/17 12:00:04;;;;;;;12.67;9.03;;;13.50;99.90;;;;;;5082509;28;20202;-85
2023/02/17 12:02:44;;;;;;;15.70;9.73;;;13.50;99.90;;;;;;5096545;28;20239;-86
2023/02/17 12:05:21;;;;;;;12.43;9.07;;;13.60;99.90;;;;;;5114504;28;20196;-85
2023/02/17 12:08:04;;;;;;;13.93;9.40;;;13.80;99.90;;;;;;5095322;28;20221;-83
2023/02/17 12:10:44;;;;;;;15.07;10.20;;;13.60;99.90;;;;;;5100090;28;20288;-86
2023/02/17 12:13:27;;;;;;;13.90;9.63;;;13.60;99.90;;;;;;5079794;28;20693;-85
2023/02/17 12:16:05;;;;;;;15.93;10.77;;;13.70;99.90;;;;;;5097622;28;20614;-86
2023/02/17 12:18:49;;;;;;;13.83;9.37;;;13.60;99.90;;;;;;5096494;28;20288;-86
2023/02/17 12:21:29;;;;;;;14.40;9.70;;;13.60;99.90;;;;;;5093722;28;20708;-84
2023/02/17 12:24:08;;;;;;;14.80;10.53;;;13.70;99.90;;;;;;5088292;28;20653;-85
2023/02/17 12:26:40;;;;;;;15.23;10.63;;;13.70;99.90;;;;;;5105229;28;20307;-85
2023/02/17 12:29:23;;;;;;;16.07;10.70;;;13.70;99.90;;;;;;5090364;28;20232;-87
2023/02/17 12:32:10;;;;;;;15.33;11.13;;;13.80;99.90;;;;;;5097013;28;20607;-86
2023/02/17 12:34:43;;;;;;;15.00;10.47;;;13.90;99.90;;;;;;5096917;28;20293;-84
2023/02/17 12:37:19;;;;;;;18.30;12.27;;;13.90;99.90;;;;;;5090195;28;20250;-85
2023/02/17 12:39:51;;;;;;;18.67;11.67;;;14.00;99.90;;;;;;5100419;28;20261;-86
2023/02/17 12:42:23;;;;;;;17.83;13.23;;;14.10;99.90;;;;;;5090415;28;20241;-86
2023/02/17 12:44:54;;;;;;;17.07;12.43;;;14.40;99.90;;;;;;5098853;28;20196;-86
2023/02/17 12:47:27;;;;;;;16.63;12.33;;;14.50;99.90;;;;;;5105601;28;20748;-87
2023/02/17 12:50:01;;;;;;;16.97;11.43;;;14.30;99.90;;;;;;5082395;28;20205;-87
2023/02/17 12:52:30;;;;;;;17.63;12.47;;;13.80;99.90;;;;;;5077126;28;20616;-86